Time;durP1;ratioP1;P1;durP2;ratioP2;P2;SDS_P1;SDS_P2;PMS_P1;PMS_P2;Temp;Humidity;BMP_temperature;BMP_pressure;BME280_temperature;BME280_humidity;BME280_pressure;Samples;Min_cycle;Max_cycle;Signal;HPM_P1;HPM_P2
2022/10/02 00:00:20;;;;;;;6.87;2.93;;;13.30;99.90;;;;;;5112483;28;20449;-55
2022/10/02 00:02:51;;;;;;;4.20;3.30;;;13.30;99.90;;;;;;5112162;28;20476;-55
2022/10/02 00:05:23;;;;;;;3.30;2.20;;;13.30;99.90;;;;;;5110221;28;20901;-55
2022/10/02 00:07:54;;;;;;;7.53;3.00;;;13.40;99.90;;;;;;5112567;28;20431;-55
2022/10/02 00:10:29;;;;;;;3.53;2.50;;;13.40;99.90;;;;;;5112191;28;20412;-56
2022/10/02 00:13:00;;;;;;;12.20;3.20;;;13.40;99.90;;;;;;5111141;28;20462;-55
2022/10/02 00:15:30;;;;;;;7.00;2.53;;;13.40;99.90;;;;;;5112083;28;20431;-55
2022/10/02 00:18:01;;;;;;;3.43;2.30;;;13.50;99.90;;;;;;5111818;28;20812;-55
2022/10/02 00:20:35;;;;;;;4.63;2.33;;;13.50;99.90;;;;;;5110041;28;20447;-55
2022/10/02 00:23:08;;;;;;;6.67;2.90;;;13.50;99.90;;;;;;5112519;28;20473;-55
2022/10/02 00:25:44;;;;;;;5.43;3.13;;;13.50;99.90;;;;;;5112547;28;20435;-55
2022/10/02 00:28:19;;;;;;;7.77;2.70;;;13.40;99.90;;;;;;5110121;28;20442;-55
2022/10/02 00:31:02;;;;;;;4.23;2.30;;;13.40;99.90;;;;;;5112301;28;20801;-55
2022/10/02 00:33:38;;;;;;;8.33;5.07;;;13.40;99.90;;;;;;5109911;28;20423;-55
2022/10/02 00:36:19;;;;;;;6.77;2.50;;;13.40;99.90;;;;;;5112545;28;20430;-55
2022/10/02 00:38:54;;;;;;;4.60;2.53;;;13.40;99.90;;;;;;5111843;28;20430;-55
2022/10/02 00:41:58;;;;;;;4.43;2.53;;;13.40;99.90;;;;;;5109933;28;20792;-55
2022/10/02 00:44:44;;;;;;;8.90;2.50;;;13.40;99.90;;;;;;5111334;28;20456;-55
2022/10/02 00:47:18;;;;;;;6.40;3.00;;;13.50;99.90;;;;;;5112304;28;20782;-55
2022/10/02 00:49:58;;;;;;;6.10;2.73;;;13.50;99.90;;;;;;5110013;28;20434;-55
2022/10/02 00:52:47;;;;;;;10.17;3.27;;;13.50;99.90;;;;;;5111775;28;20509;-55
2022/10/02 00:55:37;;;;;;;6.03;2.50;;;13.40;99.90;;;;;;5112095;28;20993;-55
2022/10/02 00:58:32;;;;;;;5.40;2.40;;;13.40;99.90;;;;;;5111782;28;20427;-55
2022/10/02 01:01:05;;;;;;;4.07;2.50;;;13.40;99.90;;;;;;5111719;28;20511;-55
2022/10/02 01:03:37;;;;;;;3.57;2.30;;;13.40;99.90;;;;;;5109926;28;20422;-55
2022/10/02 01:06:04;;;;;;;3.60;2.10;;;13.40;99.90;;;;;;5111292;28;20433;-55
2022/10/02 01:08:33;;;;;;;9.70;2.90;;;13.50;99.90;;;;;;5111782;28;20959;-55
2022/10/02 01:11:00;;;;;;;2.90;2.40;;;13.50;99.90;;;;;;5110271;28;20470;-56
2022/10/02 01:13:28;;;;;;;3.93;2.23;;;13.40;99.90;;;;;;5110916;28;20450;-55
2022/10/02 01:15:59;;;;;;;9.43;3.07;;;13.40;99.90;;;;;;5111708;28;20537;-55
2022/10/02 01:18:29;;;;;;;6.37;2.30;;;13.50;99.90;;;;;;5109698;28;20438;-55
2022/10/02 01:21:02;;;;;;;4.20;2.10;;;13.50;99.90;;;;;;5111324;28;20479;-55
2022/10/02 01:23:36;;;;;;;7.40;2.77;;;13.60;99.90;;;;;;5111778;28;20784;-59
2022/10/02 01:26:04;;;;;;;9.30;3.20;;;13.60;99.90;;;;;;5109701;28;20426;-55
2022/10/02 01:28:32;;;;;;;2.30;1.97;;;13.60;99.90;;;;;;5111248;28;20451;-55
2022/10/02 01:31:06;;;;;;;6.70;2.80;;;13.60;99.90;;;;;;5111791;28;20462;-55
2022/10/02 01:33:34;;;;;;;3.67;2.07;;;13.60;99.90;;;;;;5109204;28;20988;-55
2022/10/02 01:36:02;;;;;;;3.80;2.20;;;13.60;99.90;;;;;;5111728;28;20541;-55
2022/10/02 01:38:30;;;;;;;4.53;2.87;;;13.60;99.90;;;;;;5111431;28;20691;-55
2022/10/02 01:40:57;;;;;;;5.43;2.10;;;13.60;99.90;;;;;;5108648;28;20522;-55
2022/10/02 01:43:28;;;;;;;5.53;2.57;;;13.60;99.90;;;;;;5111774;28;20477;-55
2022/10/02 01:46:07;;;;;;;4.17;2.17;;;13.60;99.90;;;;;;5112106;28;20430;-55
2022/10/02 01:48:46;;;;;;;4.80;2.93;;;13.50;99.90;;;;;;5112692;28;20480;-55
2022/10/02 01:51:27;;;;;;;5.33;3.13;;;13.60;99.90;;;;;;5114774;28;20530;-55
2022/10/02 01:54:07;;;;;;;6.77;2.77;;;13.60;99.90;;;;;;5115327;28;20447;-55
2022/10/02 01:56:44;;;;;;;4.03;2.07;;;13.70;99.90;;;;;;5113000;28;20517;-55
2022/10/02 01:59:24;;;;;;;8.10;2.40;;;13.60;99.90;;;;;;5114793;28;20513;-55
2022/10/02 02:02:02;;;;;;;4.70;2.53;;;13.70;99.90;;;;;;5114866;28;20500;-55
2022/10/02 02:04:36;;;;;;;5.73;2.53;;;13.70;99.90;;;;;;5113731;28;20407;-55
2022/10/02 02:07:11;;;;;;;4.23;2.30;;;13.60;99.90;;;;;;5114677;28;20438;-55
2022/10/02 02:09:42;;;;;;;6.87;2.60;;;13.70;99.90;;;;;;5112414;28;20475;-55
2022/10/02 02:12:15;;;;;;;4.07;2.30;;;13.70;99.90;;;;;;5114816;28;20497;-55
2022/10/02 02:14:50;;;;;;;4.60;2.13;;;13.70;99.90;;;;;;5114927;28;20898;-56
2022/10/02 02:17:25;;;;;;;2.70;2.23;;;13.70;99.90;;;;;;5112177;28;20951;-55
2022/10/02 02:19:59;;;;;;;4.47;1.90;;;13.70;99.90;;;;;;5114318;28;20442;-55
2022/10/02 02:22:29;;;;;;;5.03;2.30;;;13.70;99.90;;;;;;5112805;28;20486;-55
2022/10/02 02:25:01;;;;;;;4.70;2.57;;;13.60;99.90;;;;;;5111919;28;20802;-55
2022/10/02 02:27:35;;;;;;;4.50;2.47;;;13.70;99.90;;;;;;5115016;28;20518;-55
2022/10/02 02:30:10;;;;;;;6.73;2.60;;;13.70;99.90;;;;;;5114234;28;20454;-55
2022/10/02 02:32:41;;;;;;;7.53;2.50;;;13.70;99.90;;;;;;5112764;28;20470;-55
2022/10/02 02:35:13;;;;;;;2.60;2.30;;;13.70;99.90;;;;;;5114618;28;20423;-55
2022/10/02 02:37:42;;;;;;;4.33;2.50;;;13.70;99.90;;;;;;5113599;28;20435;-55
2022/10/02 02:40:15;;;;;;;3.20;2.60;;;13.70;99.90;;;;;;5111385;28;20427;-55
2022/10/02 02:42:48;;;;;;;4.60;2.67;;;13.80;99.90;;;;;;5114412;28;20575;-55
2022/10/02 02:45:21;;;;;;;4.67;2.60;;;13.80;99.90;;;;;;5113912;28;20431;-56
2022/10/02 02:47:51;;;;;;;5.17;2.87;;;13.70;99.90;;;;;;5112148;28;20427;-55
2022/10/02 02:50:23;;;;;;;4.83;4.27;;;13.70;99.90;;;;;;5112405;28;20830;-55
2022/10/02 02:52:55;;;;;;;6.60;2.80;;;13.70;99.90;;;;;;5113553;28;20546;-55
2022/10/02 02:55:26;;;;;;;7.33;2.67;;;13.70;99.90;;;;;;5112154;28;20438;-55
2022/10/02 02:57:58;;;;;;;8.93;2.50;;;13.70;99.90;;;;;;5113787;28;20462;-55
2022/10/02 03:00:26;;;;;;;6.37;2.50;;;13.70;99.90;;;;;;5113497;28;20929;-55
2022/10/02 03:02:57;;;;;;;5.63;2.33;;;13.70;99.90;;;;;;5111839;28;20486;-55
2022/10/02 03:05:25;;;;;;;12.33;2.60;;;13.70;99.90;;;;;;5113418;28;20431;-55
2022/10/02 03:07:55;;;;;;;6.20;2.87;;;13.70;99.90;;;;;;5113220;28;20450;-55
2022/10/02 03:10:32;;;;;;;9.17;3.17;;;13.70;99.90;;;;;;5111364;28;20798;-55
2022/10/02 03:13:11;;;;;;;10.93;3.00;;;13.80;99.90;;;;;;5113218;28;20945;-56
2022/10/02 03:15:49;;;;;;;5.23;2.33;;;13.80;99.90;;;;;;5113260;28;20521;-55
2022/10/02 03:18:49;;;;;;;5.10;2.57;;;13.80;99.90;;;;;;5111343;28;20521;-56
2022/10/02 03:21:22;;;;;;;7.40;2.63;;;13.80;99.90;;;;;;5113414;28;20445;-55
2022/10/02 03:24:00;;;;;;;3.77;2.13;;;13.80;99.90;;;;;;5111339;28;20585;-55
2022/10/02 03:26:35;;;;;;;6.77;2.80;;;13.70;99.90;;;;;;5113188;28;20458;-55
2022/10/02 03:29:05;;;;;;;6.00;2.57;;;13.80;99.90;;;;;;5113287;28;20544;-55
2022/10/02 03:31:35;;;;;;;5.60;2.67;;;13.70;99.90;;;;;;5111124;28;20519;-55
2022/10/02 03:34:03;;;;;;;2.97;2.53;;;13.70;99.90;;;;;;5112652;28;20963;-55
2022/10/02 03:36:31;;;;;;;4.90;2.70;;;13.70;99.90;;;;;;5113457;28;20450;-55
2022/10/02 03:39:02;;;;;;;6.03;2.60;;;13.70;99.90;;;;;;5109789;28;20453;-55
2022/10/02 03:41:29;;;;;;;9.40;2.90;;;13.70;99.90;;;;;;5112954;28;20472;-55
2022/10/02 03:43:56;;;;;;;6.23;2.57;;;13.70;99.90;;;;;;5112910;28;20474;-55
2022/10/02 03:46:23;;;;;;;5.00;2.30;;;13.70;99.90;;;;;;5110668;28;20453;-55
2022/10/02 03:48:55;;;;;;;6.07;2.53;;;13.80;99.90;;;;;;5112229;28;20446;-55
2022/10/02 03:51:22;;;;;;;7.10;3.00;;;13.70;99.90;;;;;;5111565;28;20966;-55
2022/10/02 03:53:49;;;;;;;4.07;2.23;;;13.70;99.90;;;;;;5110760;28;20453;-56
2022/10/02 03:56:27;;;;;;;5.27;2.70;;;13.70;99.90;;;;;;5112655;28;20525;-55
2022/10/02 03:58:57;;;;;;;6.57;2.57;;;13.70;99.90;;;;;;5112709;28;20427;-55
2022/10/02 04:01:29;;;;;;;6.33;2.30;;;13.70;99.90;;;;;;5110318;28;20474;-55
2022/10/02 04:04:03;;;;;;;2.93;2.23;;;13.70;99.90;;;;;;5112334;28;20419;-55
2022/10/02 04:06:42;;;;;;;7.80;2.67;;;13.70;99.90;;;;;;5112202;28;20438;-55
2022/10/02 04:09:13;;;;;;;5.17;2.97;;;13.70;99.90;;;;;;5109803;28;20647;-55
2022/10/02 04:11:47;;;;;;;7.10;2.80;;;13.60;99.90;;;;;;5112748;28;20463;-55
2022/10/02 04:14:17;;;;;;;3.87;2.33;;;13.60;99.90;;;;;;5112426;28;20430;-56
2022/10/02 04:16:50;;;;;;;7.53;2.90;;;13.60;99.90;;;;;;5109980;28;20530;-55
2022/10/02 04:19:23;;;;;;;4.53;2.60;;;13.60;99.90;;;;;;5112419;28;20477;-55
2022/10/02 04:21:55;;;;;;;5.33;2.43;;;13.60;99.90;;;;;;5111722;28;21298;-56
2022/10/02 04:24:32;;;;;;;6.50;3.00;;;13.60;99.90;;;;;;5110498;28;20423;-55
2022/10/02 04:27:07;;;;;;;6.27;3.10;;;13.60;99.90;;;;;;5112759;28;20438;-55
2022/10/02 04:29:39;;;;;;;11.43;2.93;;;13.60;99.90;;;;;;5111865;28;20434;-55
2022/10/02 04:32:14;;;;;;;6.10;2.43;;;13.60;99.90;;;;;;5110154;28;20469;-55
2022/10/02 04:34:43;;;;;;;8.53;3.00;;;13.60;99.90;;;;;;5112109;28;20444;-55
2022/10/02 04:37:40;;;;;;;11.33;3.17;;;13.60;99.90;;;;;;5111808;28;20446;-55
2022/10/02 04:40:21;;;;;;;8.10;3.03;;;13.70;99.90;;;;;;5098666;28;20461;-55
2022/10/02 04:43:05;;;;;;;7.60;2.90;;;13.60;99.90;;;;;;5111544;28;20493;-55
2022/10/02 04:45:43;;;;;;;4.37;2.37;;;13.60;99.90;;;;;;5110614;28;20525;-55
2022/10/02 04:48:40;;;;;;;7.13;2.53;;;13.60;99.90;;;;;;5111898;28;20453;-55
2022/10/02 04:51:19;;;;;;;6.30;2.20;;;13.60;99.90;;;;;;5112335;28;20473;-55
2022/10/02 04:54:03;;;;;;;7.83;2.50;;;13.60;99.90;;;;;;5110224;28;20514;-55
2022/10/02 04:56:55;;;;;;;2.70;2.20;;;13.60;99.90;;;;;;5111677;28;20487;-55
2022/10/02 04:59:38;;;;;;;5.60;2.70;;;13.60;99.90;;;;;;5112089;28;20511;-55
2022/10/02 05:02:21;;;;;;;4.30;2.67;;;13.50;99.90;;;;;;5110689;28;20535;-56
2022/10/02 05:05:12;;;;;;;3.73;2.10;;;13.50;99.90;;;;;;5111525;28;20426;-55
2022/10/02 05:08:17;;;;;;;5.93;2.33;;;13.60;99.90;;;;;;5110150;28;20427;-55
2022/10/02 05:10:59;;;;;;;4.33;3.20;;;13.50;99.90;;;;;;5111251;28;20419;-55
2022/10/02 05:13:47;;;;;;;5.77;2.73;;;13.50;99.90;;;;;;5112059;28;20827;-55
2022/10/02 05:16:32;;;;;;;7.50;3.10;;;13.50;99.90;;;;;;5110164;28;20433;-55
2022/10/02 05:19:18;;;;;;;4.20;2.97;;;13.50;99.90;;;;;;5111742;28;20437;-55
2022/10/02 05:22:01;;;;;;;6.30;3.60;;;13.50;99.90;;;;;;5114031;28;20468;-55
2022/10/02 05:24:46;;;;;;;8.30;2.97;;;13.50;99.90;;;;;;5115770;28;20427;-56
2022/10/02 05:27:44;;;;;;;6.27;3.00;;;13.50;99.90;;;;;;5115873;28;20426;-55
2022/10/02 05:30:13;;;;;;;5.00;2.67;;;13.50;99.90;;;;;;5113483;28;20544;-55
2022/10/02 05:32:59;;;;;;;4.30;3.90;;;13.50;99.90;;;;;;5115507;28;20458;-56
2022/10/02 05:35:40;;;;;;;4.37;2.70;;;13.50;99.90;;;;;;5115698;28;20512;-55
2022/10/02 05:38:19;;;;;;;6.60;2.30;;;13.40;99.90;;;;;;5112908;28;20408;-55
2022/10/02 05:40:55;;;;;;;4.57;2.93;;;13.40;99.90;;;;;;5114634;28;20526;-55
2022/10/02 05:43:29;;;;;;;5.37;3.10;;;13.40;99.90;;;;;;5115939;28;20485;-55
2022/10/02 05:45:59;;;;;;;6.20;3.23;;;13.40;99.90;;;;;;5113487;28;20470;-54
2022/10/02 05:48:29;;;;;;;6.23;2.60;;;13.40;99.90;;;;;;5115438;28;20482;-55
2022/10/02 05:51:02;;;;;;;12.10;3.30;;;13.40;99.90;;;;;;5115475;28;20556;-55
2022/10/02 05:53:36;;;;;;;8.00;2.90;;;13.30;99.90;;;;;;5112761;28;20427;-55
2022/10/02 05:56:14;;;;;;;4.40;3.27;;;13.30;99.90;;;;;;5115716;28;20426;-55
2022/10/02 05:58:50;;;;;;;10.17;3.27;;;13.40;99.90;;;;;;5115070;28;20430;-55
2022/10/02 06:01:22;;;;;;;7.17;2.93;;;13.40;99.90;;;;;;5113790;28;20454;-55
2022/10/02 06:03:57;;;;;;;8.50;4.17;;;13.40;99.90;;;;;;5114625;28;21020;-54
2022/10/02 06:06:32;;;;;;;4.70;3.00;;;13.30;99.90;;;;;;5112872;28;20429;-55
2022/10/02 06:09:03;;;;;;;5.27;2.90;;;13.40;99.90;;;;;;5114806;28;20407;-54
2022/10/02 06:11:39;;;;;;;7.17;3.10;;;13.40;99.90;;;;;;5115050;28;20458;-55
2022/10/02 06:14:10;;;;;;;9.80;3.50;;;13.30;99.90;;;;;;5112740;28;20430;-55
2022/10/02 06:16:44;;;;;;;7.50;3.03;;;13.30;99.90;;;;;;5114904;28;20431;-55
2022/10/02 06:19:15;;;;;;;7.77;3.00;;;13.40;99.90;;;;;;5114601;28;20519;-55
2022/10/02 06:21:49;;;;;;;3.70;2.63;;;13.40;99.90;;;;;;5112114;28;20470;-55
2022/10/02 06:24:22;;;;;;;5.30;3.80;;;13.50;99.90;;;;;;5114790;28;20492;-55
2022/10/02 06:26:56;;;;;;;5.00;2.77;;;13.40;99.90;;;;;;5114591;28;20518;-55
2022/10/02 06:29:31;;;;;;;7.30;3.37;;;13.50;99.90;;;;;;5112044;28;21079;-55
2022/10/02 06:32:10;;;;;;;10.83;3.40;;;13.50;99.90;;;;;;5114375;28;20493;-55
2022/10/02 06:34:37;;;;;;;6.30;3.40;;;13.50;99.90;;;;;;5114833;28;20426;-55
2022/10/02 06:37:32;;;;;;;7.17;2.97;;;13.50;99.90;;;;;;5112893;28;20533;-55
2022/10/02 06:40:23;;;;;;;6.20;3.43;;;13.50;99.90;;;;;;5114572;28;20453;-55
2022/10/02 06:42:59;;;;;;;5.30;3.00;;;13.50;99.90;;;;;;5114598;28;20482;-55
2022/10/02 06:45:35;;;;;;;3.33;3.03;;;13.60;99.90;;;;;;5113313;28;20847;-55
2022/10/02 06:48:08;;;;;;;4.73;3.60;;;13.50;99.90;;;;;;5114563;28;20518;-55
2022/10/02 06:50:45;;;;;;;11.90;3.67;;;13.50;99.90;;;;;;5114672;28;20482;-55
2022/10/02 06:53:31;;;;;;;10.43;3.40;;;13.50;99.90;;;;;;5114066;28;20952;-55
2022/10/02 06:56:07;;;;;;;5.67;3.40;;;13.60;99.90;;;;;;5114496;28;20455;-54
2022/10/02 06:58:55;;;;;;;6.60;3.27;;;13.60;99.90;;;;;;5112933;28;20513;-55
2022/10/02 07:01:34;;;;;;;9.57;3.40;;;13.60;99.90;;;;;;5114425;28;20497;-55
2022/10/02 07:04:18;;;;;;;4.53;3.03;;;13.50;99.90;;;;;;5114315;28;20467;-55
2022/10/02 07:06:55;;;;;;;9.80;3.30;;;13.60;99.90;;;;;;5111648;28;20446;-56
2022/10/02 07:09:43;;;;;;;4.83;2.80;;;13.60;99.90;;;;;;5114047;28;20446;-55
2022/10/02 07:12:39;;;;;;;5.63;3.43;;;13.60;99.90;;;;;;5114286;28;21073;-55
2022/10/02 07:15:38;;;;;;;4.63;3.23;;;13.60;99.90;;;;;;5112117;28;20522;-55
2022/10/02 07:18:18;;;;;;;5.90;3.17;;;13.60;99.90;;;;;;5114822;28;20458;-55
2022/10/02 07:20:59;;;;;;;4.67;3.30;;;13.50;99.90;;;;;;5112555;28;20431;-54
2022/10/02 07:23:44;;;;;;;3.67;3.03;;;13.50;99.90;;;;;;5114149;28;20553;-55
2022/10/02 07:26:32;;;;;;;7.67;4.73;;;13.50;99.90;;;;;;5113346;28;20466;-54
2022/10/02 07:29:10;;;;;;;8.70;3.47;;;13.60;99.90;;;;;;5112089;28;20506;-55
2022/10/02 07:31:49;;;;;;;6.23;3.77;;;13.60;99.90;;;;;;5114497;28;20478;-55
2022/10/02 07:34:29;;;;;;;3.23;3.03;;;13.60;99.90;;;;;;5114076;28;20453;-55
2022/10/02 07:37:05;;;;;;;5.60;5.00;;;13.60;99.90;;;;;;5111811;28;20422;-54
2022/10/02 07:39:45;;;;;;;8.30;5.20;;;13.50;99.90;;;;;;5113823;28;20426;-55
2022/10/02 07:42:36;;;;;;;7.63;4.13;;;13.60;99.90;;;;;;5113774;28;20455;-55
2022/10/02 07:45:28;;;;;;;12.13;5.40;;;13.60;99.90;;;;;;5099712;28;20496;-55
2022/10/02 07:48:25;;;;;;;5.73;4.33;;;13.60;99.90;;;;;;5104554;28;20454;-55
2022/10/02 07:54:08;;;;;;;8.57;5.00;;;13.50;99.90;;;;;;5113506;28;20463;-55
2022/10/02 07:56:37;;;;;;;9.37;5.30;;;13.60;99.90;;;;;;5113634;28;20419;-55
2022/10/02 07:59:11;;;;;;;10.13;5.00;;;13.50;99.90;;;;;;5111748;28;20488;-55
2022/10/02 08:01:41;;;;;;;11.50;7.33;;;13.50;99.90;;;;;;5113972;28;20485;-55
2022/10/02 08:04:14;;;;;;;12.57;5.07;;;13.50;99.90;;;;;;5113329;28;21053;-55
2022/10/02 08:06:43;;;;;;;6.33;4.37;;;13.60;99.90;;;;;;5111521;28;20445;-55
2022/10/02 08:09:16;;;;;;;7.50;4.00;;;13.60;99.90;;;;;;5113265;28;20969;-55
2022/10/02 08:11:48;;;;;;;7.80;5.07;;;13.60;99.90;;;;;;5113252;28;20469;-55
2022/10/02 08:14:21;;;;;;;10.03;5.40;;;13.60;99.90;;;;;;5111670;28;20423;-55
2022/10/02 08:16:50;;;;;;;8.00;4.90;;;13.60;99.90;;;;;;5113152;28;20442;-55
2022/10/02 08:19:25;;;;;;;4.33;3.93;;;13.70;99.90;;;;;;5113286;28;20476;-55
2022/10/02 08:22:00;;;;;;;7.20;4.10;;;13.80;99.90;;;;;;5111481;28;20515;-55
2022/10/02 08:24:31;;;;;;;6.20;4.47;;;13.80;99.90;;;;;;5113002;28;20466;-55
2022/10/02 08:27:03;;;;;;;11.63;3.90;;;13.70;99.90;;;;;;5111380;28;20514;-55
2022/10/02 08:29:39;;;;;;;5.93;4.30;;;13.80;99.90;;;;;;5113358;28;20431;-55
2022/10/02 08:32:10;;;;;;;5.47;4.80;;;13.90;99.90;;;;;;5113010;28;20470;-55
2022/10/02 08:34:40;;;;;;;4.33;3.93;;;14.10;99.90;;;;;;5110836;28;20431;-55
2022/10/02 08:37:27;;;;;;;5.07;3.47;;;14.30;99.90;;;;;;5113050;28;20447;-55
2022/10/02 08:40:22;;;;;;;7.77;4.33;;;14.40;99.90;;;;;;5113034;28;20771;-54
2022/10/02 08:43:24;;;;;;;7.77;3.90;;;14.40;99.90;;;;;;5110748;28;20470;-55
2022/10/02 08:46:33;;;;;;;5.60;3.57;;;14.50;99.90;;;;;;5112820;28;21330;-55
2022/10/02 08:49:47;;;;;;;5.73;3.27;;;14.60;99.90;;;;;;5112994;28;20510;-55
2022/10/02 08:52:30;;;;;;;4.93;3.57;;;14.60;99.90;;;;;;5064549;28;20459;-55
2022/10/02 08:55:29;;;;;;;7.40;3.90;;;14.80;99.90;;;;;;5113554;28;20429;-55
2022/10/02 08:58:15;;;;;;;7.70;3.73;;;14.80;99.90;;;;;;5099462;28;20503;-55
2022/10/02 09:00:55;;;;;;;7.63;3.67;;;14.90;99.90;;;;;;5116515;28;20549;-55
2022/10/02 09:04:01;;;;;;;8.00;3.30;;;15.00;99.90;;;;;;5116808;28;20992;-55
2022/10/02 09:07:02;;;;;;;4.13;3.70;;;14.90;99.90;;;;;;5116554;28;20531;-55
2022/10/02 09:09:58;;;;;;;4.70;3.37;;;14.70;99.90;;;;;;5116843;28;20446;-55
2022/10/02 09:12:57;;;;;;;9.17;4.13;;;14.80;99.90;;;;;;5114657;28;20471;-55
2022/10/02 09:15:38;;;;;;;9.30;4.57;;;15.10;99.90;;;;;;5078089;28;20956;-55
2022/10/02 09:18:16;;;;;;;8.50;3.90;;;15.10;99.90;;;;;;5116915;28;20422;-56
2022/10/02 09:21:18;;;;;;;6.50;4.23;;;15.10;99.90;;;;;;5114538;28;20458;-56
2022/10/02 09:24:39;;;;;;;5.70;3.90;;;15.00;99.90;;;;;;5073026;28;20481;-55
2022/10/02 09:27:42;;;;;;;6.50;4.23;;;15.00;99.90;;;;;;5108490;28;20895;-55
2022/10/02 09:30:20;;;;;;;9.37;4.20;;;15.10;99.90;;;;;;5058219;28;20458;-55
2022/10/02 09:33:27;;;;;;;6.83;3.83;;;15.20;99.90;;;;;;5116534;28;20470;-55
2022/10/02 09:36:37;;;;;;;11.73;5.93;;;15.30;99.90;;;;;;5107690;28;20461;-55
2022/10/02 09:39:39;;;;;;;6.70;4.50;;;15.40;99.90;;;;;;5095628;28;20490;-55
2022/10/02 09:42:52;;;;;;;9.67;4.50;;;15.50;99.90;;;;;;5114157;28;20468;-55
2022/10/02 09:45:51;;;;;;;5.70;3.77;;;15.40;99.90;;;;;;5116137;28;20494;-55
2022/10/02 09:48:58;;;;;;;4.60;4.10;;;15.20;99.90;;;;;;5115079;28;20426;-54
2022/10/02 09:51:48;;;;;;;9.67;4.60;;;14.90;99.90;;;;;;5115596;28;20485;-54
2022/10/02 09:54:55;;;;;;;5.20;4.00;;;14.80;99.90;;;;;;5116458;28;20429;-54
2022/10/02 09:58:04;;;;;;;12.17;5.40;;;14.80;99.90;;;;;;5114084;28;20426;-54
2022/10/02 10:01:03;;;;;;;5.67;4.67;;;14.80;99.90;;;;;;5116128;28;20515;-54
2022/10/02 10:04:00;;;;;;;8.03;5.30;;;14.80;99.90;;;;;;5113883;28;20554;-56
2022/10/02 10:06:52;;;;;;;10.40;4.67;;;14.90;99.90;;;;;;5114706;28;20423;-55
2022/10/02 10:09:55;;;;;;;8.20;4.50;;;14.80;99.90;;;;;;5116035;28;20430;-55
2022/10/02 10:12:54;;;;;;;9.90;4.53;;;14.80;99.90;;;;;;5100294;28;20474;-55
2022/10/02 10:16:02;;;;;;;7.70;4.60;;;14.70;99.90;;;;;;5115899;28;20506;-54
2022/10/02 10:19:02;;;;;;;6.13;4.60;;;14.70;99.90;;;;;;5113479;28;20424;-54
2022/10/02 10:22:12;;;;;;;7.83;4.93;;;14.90;99.90;;;;;;5115234;28;20477;-54
2022/10/02 10:25:19;;;;;;;6.33;4.50;;;14.90;99.90;;;;;;5115339;28;20545;-54
2022/10/02 10:28:12;;;;;;;4.77;3.57;;;14.70;99.90;;;;;;5115172;28;20461;-54
2022/10/02 10:31:24;;;;;;;4.20;3.73;;;14.70;99.90;;;;;;5115592;28;20554;-54
2022/10/02 10:34:27;;;;;;;5.87;3.57;;;14.70;99.90;;;;;;5113078;28;20971;-54
2022/10/02 10:40:15;;;;;;;3.03;2.73;;;15.00;99.90;;;;;;5113411;28;20410;-55
2022/10/02 10:43:32;;;;;;;3.30;3.00;;;15.10;99.90;;;;;;5114904;28;20465;-55
2022/10/02 10:54:07;;;;;;;2.33;2.13;;;15.00;99.90;;;;;;4993981;28;20485;-55
2022/10/02 10:56:44;;;;;;;2.43;2.23;;;14.90;99.90;;;;;;5112177;28;20782;-55
2022/10/02 10:59:53;;;;;;;1.77;1.60;;;14.80;99.90;;;;;;5113812;28;20893;-55
2022/10/02 11:03:04;;;;;;;2.57;2.10;;;14.70;99.90;;;;;;5112356;28;20987;-54
2022/10/02 11:06:11;;;;;;;2.57;2.37;;;14.80;99.90;;;;;;5113637;28;20478;-54
2022/10/02 11:09:07;;;;;;;2.33;2.13;;;14.80;99.90;;;;;;5113551;28;20500;-55
2022/10/02 11:11:49;;;;;;;3.10;2.00;;;14.80;99.90;;;;;;5111368;28;20466;-54
2022/10/02 11:14:27;;;;;;;2.57;2.20;;;14.80;99.90;;;;;;5113223;28;20453;-54
2022/10/02 11:17:20;;;;;;;2.30;2.10;;;14.90;99.90;;;;;;5113271;28;20433;-54
2022/10/02 11:20:23;;;;;;;1.93;1.73;;;14.90;99.90;;;;;;5113372;28;20423;-55
2022/10/02 11:23:15;;;;;;;2.07;1.87;;;15.00;99.90;;;;;;5106345;28;21015;-55
2022/10/02 11:26:14;;;;;;;2.20;2.00;;;15.00;99.90;;;;;;5111958;28;20561;-55
2022/10/02 11:29:11;;;;;;;1.80;1.70;;;15.10;99.90;;;;;;5080643;27;20937;-55
2022/10/02 11:32:11;;;;;;;2.50;2.10;;;15.00;99.90;;;;;;5112673;28;20494;-54
2022/10/02 11:35:15;;;;;;;2.10;1.90;;;14.90;99.90;;;;;;5112958;28;20496;-57
2022/10/02 11:37:59;;;;;;;1.47;1.37;;;14.90;99.90;;;;;;5113100;28;20474;-58
2022/10/02 11:40:54;;;;;;;1.43;1.33;;;15.30;99.90;;;;;;5110802;28;20924;-53
2022/10/02 11:44:00;;;;;;;1.70;1.60;;;15.40;99.90;;;;;;5107872;28;20989;-56
2022/10/02 11:46:54;;;;;;;1.60;1.50;;;15.70;99.90;;;;;;5089701;28;20443;-56
2022/10/02 11:50:03;;;;;;;1.83;1.73;;;15.70;99.90;;;;;;5105850;28;20494;-55
2022/10/02 11:52:48;;;;;;;1.97;1.47;;;15.60;99.90;;;;;;5091814;28;20475;-55
2022/10/02 11:55:29;;;;;;;1.60;1.30;;;15.50;99.90;;;;;;5089067;28;20766;-58
2022/10/02 11:58:08;;;;;;;1.67;1.57;;;15.50;99.90;;;;;;5091492;28;20429;-56
2022/10/02 12:01:04;;;;;;;4.50;3.73;;;15.40;99.90;;;;;;5092166;28;20482;-53
2022/10/02 12:03:45;;;;;;;1.47;1.27;;;15.40;99.90;;;;;;5089816;28;20792;-54
2022/10/02 12:06:24;;;;;;;1.50;1.40;;;15.30;99.90;;;;;;5092222;28;20433;-54
2022/10/02 12:09:02;;;;;;;1.60;1.50;;;15.30;99.90;;;;;;5091990;28;20428;-55
2022/10/02 12:11:40;;;;;;;3.63;1.50;;;15.30;99.90;;;;;;5090733;28;20518;-57
2022/10/02 12:14:17;;;;;;;1.80;1.40;;;15.50;99.90;;;;;;5101412;28;20918;-62
2022/10/02 12:16:58;;;;;;;1.30;1.20;;;15.60;99.90;;;;;;5110559;28;20786;-64
2022/10/02 12:26:57;;;;;;;1.63;1.30;;;15.70;99.90;;;;;;5110437;28;20514;-54
2022/10/02 12:28:24;;;;;;;2.17;1.20;;;15.60;99.90;;;;;;5110343;28;20961;-55
2022/10/02 12:31:04;;;;;;;1.77;1.57;;;15.30;99.90;;;;;;5110322;28;20537;-52
2022/10/02 12:33:39;;;;;;;1.77;1.40;;;15.20;99.90;;;;;;5089589;28;20435;-56
2022/10/02 12:36:33;;;;;;;6.70;3.40;;;14.90;99.90;;;;;;5090282;28;20429;-54
2022/10/02 12:39:14;;;;;;;21.03;9.20;;;14.70;99.90;;;;;;5089234;28;20849;-54
2022/10/02 12:41:59;;;;;;;25.50;11.20;;;14.80;99.90;;;;;;5094856;28;20469;-55
2022/10/02 12:44:43;;;;;;;11.90;5.70;;;14.80;99.90;;;;;;5111243;28;20470;-50
2022/10/02 12:47:49;;;;;;;17.70;6.20;;;14.80;99.90;;;;;;5109860;28;20442;-55
2022/10/02 12:50:33;;;;;;;6.80;2.03;;;14.80;99.90;;;;;;5112335;28;20478;-55
2022/10/02 12:53:32;;;;;;;14.43;5.60;;;14.80;99.90;;;;;;5111610;28;20489;-52
2022/10/02 12:56:22;;;;;;;6.77;4.00;;;14.70;99.90;;;;;;5106203;28;20474;-57
2022/10/02 12:59:04;;;;;;;3.40;1.70;;;14.80;99.90;;;;;;5112744;28;20418;-54
2022/10/02 13:01:56;;;;;;;3.80;2.07;;;14.80;99.90;;;;;;5110577;28;21041;-53
2022/10/02 13:04:48;;;;;;;4.77;2.50;;;14.70;99.90;;;;;;5111933;28;20838;-53
2022/10/02 13:07:38;;;;;;;14.37;4.60;;;14.50;99.90;;;;;;5112460;28;20427;-52
2022/10/02 13:10:18;;;;;;;9.07;4.43;;;14.50;99.90;;;;;;5110342;28;20437;-54
2022/10/02 13:13:00;;;;;;;7.37;4.90;;;14.50;99.90;;;;;;5105277;28;20470;-53
2022/10/02 13:15:39;;;;;;;5.27;3.10;;;14.40;99.90;;;;;;5111787;28;20455;-56
2022/10/02 13:18:26;;;;;;;4.17;2.40;;;14.30;99.90;;;;;;5112408;28;20775;-55
2022/10/02 13:21:03;;;;;;;2.30;2.10;;;14.30;99.90;;;;;;5110981;28;20463;-55
2022/10/02 13:23:40;;;;;;;4.53;4.03;;;14.40;99.90;;;;;;5107123;28;20443;-53
2022/10/02 13:26:21;;;;;;;1.70;1.23;;;14.50;99.90;;;;;;5110670;28;20972;-53
2022/10/02 13:29:18;;;;;;;2.50;1.30;;;14.70;99.90;;;;;;5111002;28;20433;-58
2022/10/02 13:32:08;;;;;;;4.03;1.60;;;14.80;99.90;;;;;;5109580;28;20470;-57
2022/10/02 13:34:52;;;;;;;1.60;1.50;;;15.00;99.90;;;;;;5110358;28;20432;-58
2022/10/02 13:37:29;;;;;;;1.70;1.60;;;15.00;99.90;;;;;;5111126;28;20531;-60
2022/10/02 13:40:19;;;;;;;2.30;2.10;;;15.10;99.90;;;;;;5107586;28;20434;-55
2022/10/02 13:43:21;;;;;;;1.77;1.40;;;15.00;99.90;;;;;;5110622;28;20956;-54
2022/10/02 13:45:56;;;;;;;1.70;1.40;;;14.80;99.90;;;;;;5112313;28;20458;-54
2022/10/02 13:48:35;;;;;;;2.27;1.50;;;14.70;99.90;;;;;;5115358;28;20456;-55
2022/10/02 13:51:09;;;;;;;2.70;2.10;;;14.80;99.90;;;;;;5114406;28;20483;-59
2022/10/02 13:53:48;;;;;;;1.30;1.20;;;14.90;99.90;;;;;;5111902;28;20516;-55
2022/10/02 13:56:27;;;;;;;1.10;1.00;;;14.90;99.90;;;;;;5114142;28;20783;-58
2022/10/02 13:59:31;;;;;;;2.53;1.30;;;15.20;99.90;;;;;;5115075;28;20735;-51
2022/10/02 14:02:32;;;;;;;1.40;1.07;;;15.30;99.90;;;;;;5112659;28;20470;-54
2022/10/02 14:05:05;;;;;;;2.00;1.50;;;15.40;99.90;;;;;;5112609;28;20470;-54
2022/10/02 14:07:53;;;;;;;1.33;1.23;;;15.30;99.90;;;;;;5112853;28;20431;-50
2022/10/02 14:10:32;;;;;;;1.20;1.10;;;15.40;99.90;;;;;;5114417;28;20512;-54
2022/10/02 14:13:16;;;;;;;1.40;1.30;;;15.10;99.90;;;;;;5112966;28;20465;-57
2022/10/02 14:15:59;;;;;;;1.20;1.10;;;15.10;99.90;;;;;;5112354;28;20510;-55
2022/10/02 14:18:40;;;;;;;1.10;0.90;;;15.30;99.90;;;;;;5114106;28;20427;-54
2022/10/02 14:21:14;;;;;;;1.80;1.27;;;15.40;99.90;;;;;;5113742;28;20430;-57